Terminal Aerodrome Forecast
Issued by NWS Cleveland, OH

Home | Current Version | Previous Version | Graphics & Text | Print | Product List | Glossary Off
Versions: 1 2 3 4 5 6 7 8 9 10 11 12 13 14 15 16 17 18

000
FTUS41 KCLE 301139
TAFTOL
TAF
KTOL 301139Z 3012/3112 VRB03KT 5SM BR VCSH BKN035 OVC050
      TEMPO 3012/3014 2SM BR
     FM301400 23008KT P6SM SCT050 BKN150
     FM310100 VRB03KT P6SM FEW150 SCT250
     FM310800 24002KT 4SM BR SKC=

USA.gov is the U.S. government's official web portal to all federal, state and local government web resources and services.